Virtual United States Air Force

 METAR AND TAF INFORMATION
METAR FOR KS52
ADDS - METARS form results

(1352 UTC 26 September 2020)
Data provider http://aviationweather.gov/metar/data/
 
METAR text: KS52 261335Z AUTO 00000KT 1 1/4SM BR VV007 M01/M01 A3001 RMK AO2 VIS 3/4V5 T10071010
Conditions at: KS52 (METHOW VALLEY , WA, US) observed 1335 UTC 26 September 2020
Temperature: -0.7°C (31°F)
Dewpoint: -1.0°C (30°F) [RH = 98%]
Pressure (altimeter): 30.01 inches Hg (1016.3 mb)
Winds: calm
Visibility: 1.25 miles (2.01 km)
Ceiling: indefinite ceiling with vertical visibility of 700 feet AGL
Clouds: obscured sky
Weather: BR  (mist)

METAR text: KS52 261315Z AUTO 00000KT 10SM CLR 00/00 A3001 RMK AO2 T10011004
Conditions at: KS52 (METHOW VALLEY , WA, US) observed 1315 UTC 26 September 2020
Temperature: -0.1°C (32°F)
Dewpoint: -0.4°C (31°F) [RH = 98%]
Pressure (altimeter): 30.01 inches Hg (1016.3 mb)
Winds: calm
Visibility: 10 or more miles (16+ km)
Ceiling: at least 12,000 feet AGL
Clouds: sky clear below 12,000 feet AGL
Weather: automated observation with no human augmentation;
there may or may not be significant weather present at this time

METAR text: KS52 261255Z AUTO 36003KT 2 1/2SM BR CLR 00/00 A3000 RMK AO2 VIS 1V5 T10011004
Conditions at: KS52 (METHOW VALLEY , WA, US) observed 1255 UTC 26 September 2020
Temperature: -0.1°C (32°F)
Dewpoint: -0.4°C (31°F) [RH = 98%]
Pressure (altimeter): 30.00 inches Hg (1016.0 mb)
Winds: from the N (360 degrees) at 3 MPH (3 knots; 1.5 m/s)
Visibility: 2.50 miles (4.02 km)
Ceiling: at least 12,000 feet AGL
Clouds: sky clear below 12,000 feet AGL
Weather: BR  (mist)

 AIRPORT MAP

 RUNWAY INFORMATION
Runway 13 Runway length 5048 ft Runway width 75 ft
Runway elevation 1694 ft Runway displaced threshold 134 ft Runway heading 147
Runway 31 Runway length 5048 ft Runway width 75 ft
Runway elevation 0 ft Runway displaced threshold 231 ft Runway heading 327

 AIRPORT FREQUENCIES
Type AWOS Name AWOS Frequency 118.425 MHZ
Type UNIC Name CTAF/UNICO Frequency 122.8 MHZ

 AIRPORT NEAR NAVIGATION AIDS


Neither the Department of the Air Force, nor any other component of the Department of Defense or Federal Government has approved, endorsed, or authorized this promotion, activity, or organization. Virtual United States Air Force organization is in no way affiliated with the Department of Defense, Department of the Air Force, or any other federal or government entity. Virtual United States Air Force is a group of flight simulation enthusiasts with the common interest of promoting enjoyment and cameraderie through the simulation of military operations and procedures utilizing several flight simulation platforms.

Copyright © vUSAF, LLC // 2018-2020 All Rights Reserved